createdAt,value
2018-05-31T00:00:07.880Z,0.00
2018-05-31T00:01:07.888Z,0.00
2018-05-31T00:02:07.891Z,0.00
2018-05-31T00:03:07.895Z,0.00
2018-05-31T00:04:07.902Z,0.00
2018-05-31T00:05:07.899Z,0.00
2018-05-31T00:06:07.919Z,0.00
2018-05-31T00:07:07.908Z,0.00
2018-05-31T00:08:07.911Z,0.00
2018-05-31T00:09:07.916Z,0.00
2018-05-31T00:10:07.920Z,0.00
2018-05-31T00:11:07.922Z,0.00
2018-05-31T00:12:07.926Z,0.00
2018-05-31T00:13:07.932Z,0.00
2018-05-31T00:14:07.938Z,0.00
2018-05-31T00:15:07.937Z,0.00
2018-05-31T00:16:07.940Z,0.00
2018-05-31T00:17:07.953Z,0.00
2018-05-31T00:18:07.947Z,0.00
2018-05-31T00:19:07.949Z,0.00
2018-05-31T00:20:07.953Z,0.00
2018-05-31T00:21:07.957Z,0.00
2018-05-31T00:22:08.456Z,0.00
2018-05-31T00:23:07.964Z,0.00
2018-05-31T00:24:07.974Z,0.00
2018-05-31T00:25:08.021Z,0.00
2018-05-31T00:26:07.974Z,0.00
2018-05-31T00:27:07.978Z,0.00
2018-05-31T00:28:07.994Z,0.00
2018-05-31T00:29:07.985Z,0.00
2018-05-31T00:30:07.990Z,0.00
2018-05-31T00:31:07.991Z,0.00
2018-05-31T00:32:07.995Z,0.00
2018-05-31T00:33:07.998Z,0.00
2018-05-31T00:34:08.002Z,0.00
2018-05-31T00:35:08.004Z,0.00
2018-05-31T00:36:08.010Z,0.00
2018-05-31T00:37:08.012Z,0.00
2018-05-31T00:38:08.014Z,0.00
2018-05-31T00:39:08.062Z,0.00
2018-05-31T00:40:08.025Z,0.00
2018-05-31T00:41:08.030Z,0.00
2018-05-31T00:42:08.029Z,0.00
2018-05-31T00:43:08.050Z,0.00
2018-05-31T00:44:08.037Z,0.00
2018-05-31T00:45:08.066Z,0.00
2018-05-31T00:46:08.054Z,0.00
2018-05-31T00:47:08.047Z,0.00
2018-05-31T00:48:08.055Z,0.00
2018-05-31T00:49:08.054Z,0.00
2018-05-31T00:50:08.057Z,0.00
2018-05-31T00:51:08.060Z,0.00
2018-05-31T00:52:08.064Z,0.00
2018-05-31T00:53:08.882Z,0.00
2018-05-31T00:54:08.071Z,0.00
2018-05-31T00:55:08.074Z,0.00
2018-05-31T00:56:08.079Z,0.00
2018-05-31T00:57:08.084Z,0.00
2018-05-31T00:58:08.084Z,0.00
2018-05-31T00:59:08.094Z,0.00
2018-05-31T01:00:08.091Z,0.00
2018-05-31T01:01:08.097Z,0.00
2018-05-31T01:02:08.101Z,0.00
2018-05-31T01:03:08.101Z,0.00
2018-05-31T01:04:08.105Z,0.00
2018-05-31T01:05:08.108Z,0.00
2018-05-31T01:06:08.112Z,0.00
2018-05-31T01:07:08.117Z,0.00
2018-05-31T01:08:08.119Z,0.00
2018-05-31T01:09:08.126Z,0.00
2018-05-31T01:10:08.125Z,0.00
2018-05-31T01:11:08.136Z,0.00
2018-05-31T01:12:08.135Z,0.00
2018-05-31T01:13:08.136Z,0.00
2018-05-31T01:14:08.139Z,0.00
2018-05-31T01:15:08.141Z,0.00
2018-05-31T01:16:08.148Z,0.00
2018-05-31T01:17:08.150Z,0.00
2018-05-31T01:18:08.153Z,0.00
2018-05-31T01:19:08.156Z,0.00
2018-05-31T01:20:08.160Z,0.00
2018-05-31T01:21:08.165Z,0.00
2018-05-31T01:22:08.168Z,0.00
2018-05-31T01:23:08.169Z,0.00
2018-05-31T01:24:08.173Z,0.00
2018-05-31T01:25:08.179Z,0.00
2018-05-31T01:26:08.179Z,0.00
2018-05-31T01:27:08.183Z,0.00
2018-05-31T01:28:08.189Z,0.00
2018-05-31T01:29:08.191Z,0.00
2018-05-31T01:30:08.194Z,0.00
2018-05-31T01:31:08.200Z,0.00
2018-05-31T01:32:08.243Z,0.00
2018-05-31T01:33:08.204Z,0.00
2018-05-31T01:34:08.209Z,0.00
2018-05-31T01:35:08.212Z,0.00
2018-05-31T01:36:08.224Z,0.00
2018-05-31T01:37:08.233Z,0.00
2018-05-31T01:38:08.227Z,0.00
2018-05-31T01:39:08.232Z,0.00
2018-05-31T01:40:08.242Z,0.00
2018-05-31T01:41:08.249Z,0.00
2018-05-31T01:42:08.238Z,0.00
2018-05-31T01:43:08.239Z,0.00
2018-05-31T01:44:08.254Z,0.00
2018-05-31T01:45:08.246Z,0.00
2018-05-31T01:46:08.246Z,0.00
2018-05-31T01:47:08.250Z,0.00
2018-05-31T01:48:08.253Z,0.00
2018-05-31T01:49:08.257Z,0.00
2018-05-31T01:50:08.262Z,0.00
2018-05-31T01:51:08.265Z,0.00
2018-05-31T01:52:08.268Z,0.00
2018-05-31T01:53:08.270Z,0.00
2018-05-31T01:54:08.279Z,0.00
2018-05-31T01:55:08.278Z,0.00
2018-05-31T01:56:08.280Z,0.00
2018-05-31T01:57:08.285Z,0.00
2018-05-31T01:58:08.290Z,0.00
2018-05-31T01:59:08.293Z,0.00
2018-05-31T02:00:08.294Z,0.00
2018-05-31T02:01:08.301Z,0.00
2018-05-31T02:02:08.307Z,0.00
2018-05-31T02:03:08.303Z,0.00
2018-05-31T02:04:08.312Z,0.00
2018-05-31T02:05:08.311Z,0.00
2018-05-31T02:06:08.313Z,0.00
2018-05-31T02:07:08.317Z,0.00
2018-05-31T02:08:08.326Z,0.00
2018-05-31T02:09:08.325Z,0.00
2018-05-31T02:10:08.326Z,0.00
2018-05-31T02:11:08.344Z,0.00
2018-05-31T02:12:08.337Z,0.00
2018-05-31T02:13:08.338Z,0.00
2018-05-31T02:14:08.340Z,0.00
2018-05-31T02:15:08.369Z,0.00
2018-05-31T02:16:08.380Z,0.00
2018-05-31T02:17:08.351Z,0.00
2018-05-31T02:18:08.357Z,0.00
2018-05-31T02:19:08.355Z,0.00
2018-05-31T02:20:08.361Z,0.00
2018-05-31T02:21:08.362Z,0.00
2018-05-31T02:22:08.365Z,0.00
2018-05-31T02:23:08.368Z,0.00
2018-05-31T02:24:08.374Z,0.00
2018-05-31T02:25:08.376Z,0.00
2018-05-31T02:26:08.378Z,0.00
2018-05-31T02:27:08.380Z,0.00
2018-05-31T02:28:08.387Z,0.00
2018-05-31T02:29:08.394Z,0.00
2018-05-31T02:30:08.394Z,0.00
2018-05-31T02:31:08.399Z,0.00
2018-05-31T02:32:08.397Z,0.00
2018-05-31T02:33:08.402Z,0.00
2018-05-31T02:34:08.401Z,0.00
2018-05-31T02:35:08.410Z,0.00
2018-05-31T02:36:08.413Z,0.00
2018-05-31T02:37:08.415Z,0.00
2018-05-31T02:38:08.418Z,0.00
2018-05-31T02:39:08.422Z,0.00
2018-05-31T02:40:08.433Z,0.00
2018-05-31T02:41:08.430Z,0.00
2018-05-31T02:42:08.430Z,0.00
2018-05-31T02:43:08.443Z,0.00
2018-05-31T02:44:08.434Z,0.00
2018-05-31T02:45:08.442Z,0.00
2018-05-31T02:46:08.446Z,0.00
2018-05-31T02:47:08.445Z,0.00
2018-05-31T02:48:08.447Z,0.00
2018-05-31T02:49:08.450Z,0.00
2018-05-31T02:50:08.457Z,0.00
2018-05-31T02:51:08.459Z,0.00
2018-05-31T02:52:08.458Z,0.00
2018-05-31T02:53:08.460Z,0.00
2018-05-31T02:54:08.474Z,0.00
2018-05-31T02:55:08.471Z,0.00
2018-05-31T02:56:08.471Z,0.00
2018-05-31T02:57:08.473Z,0.00
2018-05-31T02:58:08.476Z,0.00
2018-05-31T02:59:08.485Z,0.00
2018-05-31T03:00:08.481Z,0.00
2018-05-31T03:01:08.486Z,0.00
2018-05-31T03:02:08.487Z,0.00
2018-05-31T03:03:08.490Z,0.00
2018-05-31T03:04:08.492Z,0.00
2018-05-31T03:05:08.496Z,0.00
2018-05-31T03:06:08.498Z,0.00
2018-05-31T03:07:08.507Z,0.00
2018-05-31T03:08:08.509Z,0.00
2018-05-31T03:09:08.509Z,0.00
2018-05-31T03:10:08.510Z,0.00
2018-05-31T03:11:08.513Z,0.00
2018-05-31T03:12:08.516Z,0.00
2018-05-31T03:13:08.522Z,0.00
2018-05-31T03:14:08.522Z,0.00
2018-05-31T03:15:08.524Z,5.63
2018-05-31T03:16:08.527Z,5.63
2018-05-31T03:17:08.531Z,5.63
2018-05-31T03:18:36.096Z,5.63
2018-05-31T03:19:08.537Z,5.63
2018-05-31T03:20:08.586Z,5.63
2018-05-31T03:21:08.550Z,5.63
2018-05-31T03:22:08.552Z,5.63
2018-05-31T03:23:08.552Z,5.63
2018-05-31T03:24:08.552Z,5.63
2018-05-31T03:25:08.555Z,5.63
2018-05-31T03:26:08.559Z,5.63
2018-05-31T03:27:08.822Z,5.63
2018-05-31T03:28:08.564Z,11.25
2018-05-31T03:29:08.567Z,11.25
2018-05-31T03:30:08.570Z,11.25
2018-05-31T03:31:08.574Z,11.25
2018-05-31T03:32:08.575Z,11.25
2018-05-31T03:33:08.580Z,11.25
2018-05-31T03:34:08.585Z,11.25
2018-05-31T03:35:08.586Z,11.25
2018-05-31T03:36:08.591Z,11.25
2018-05-31T03:37:08.591Z,11.25
2018-05-31T03:38:08.595Z,16.88
2018-05-31T03:39:08.596Z,16.88
2018-05-31T03:40:08.624Z,16.88
2018-05-31T03:41:08.607Z,16.88
2018-05-31T03:42:08.604Z,16.88
2018-05-31T03:43:08.608Z,16.88
2018-05-31T03:44:08.613Z,16.88
2018-05-31T03:45:08.614Z,16.88
2018-05-31T03:46:08.618Z,22.50
2018-05-31T03:47:08.621Z,22.50
2018-05-31T03:48:08.623Z,22.50
2018-05-31T03:49:08.627Z,22.50
2018-05-31T03:50:08.637Z,22.50
2018-05-31T03:51:08.630Z,22.50
2018-05-31T03:52:08.633Z,22.50
2018-05-31T03:53:08.640Z,22.50
2018-05-31T03:54:08.643Z,22.50
2018-05-31T03:55:08.644Z,22.50
2018-05-31T03:56:08.648Z,22.50
2018-05-31T03:57:08.650Z,22.50
2018-05-31T03:58:09.215Z,22.50
2018-05-31T03:59:08.655Z,22.50
2018-05-31T04:00:08.660Z,22.50
2018-05-31T04:01:08.663Z,22.50
2018-05-31T04:02:08.667Z,16.88
2018-05-31T04:03:08.667Z,16.88
2018-05-31T04:04:08.671Z,16.88
2018-05-31T04:05:08.673Z,16.88
2018-05-31T04:06:08.676Z,16.88
2018-05-31T04:07:08.680Z,16.88
2018-05-31T04:08:08.681Z,16.88
2018-05-31T04:09:08.685Z,16.88
2018-05-31T04:10:08.687Z,22.50
2018-05-31T04:11:08.689Z,22.50
2018-05-31T04:12:08.694Z,22.50
2018-05-31T04:13:08.768Z,22.50
2018-05-31T04:14:08.699Z,22.50
2018-05-31T04:15:08.702Z,22.50
2018-05-31T04:16:08.709Z,22.50
2018-05-31T04:17:08.717Z,22.50
2018-05-31T04:18:08.710Z,22.50
2018-05-31T04:19:08.715Z,22.50
2018-05-31T04:20:08.718Z,22.50
2018-05-31T04:21:08.724Z,22.50
2018-05-31T04:22:08.723Z,22.50
2018-05-31T04:23:08.728Z,22.50
2018-05-31T04:24:08.777Z,28.13
2018-05-31T04:25:08.734Z,28.13
2018-05-31T04:26:08.734Z,28.13
2018-05-31T04:27:08.739Z,33.75
2018-05-31T04:28:08.752Z,33.75
2018-05-31T04:29:09.678Z,39.38
2018-05-31T04:30:08.747Z,45.00
2018-05-31T04:31:08.756Z,50.63
2018-05-31T04:32:08.753Z,61.88
2018-05-31T04:33:08.757Z,67.50
2018-05-31T04:34:08.759Z,73.13
2018-05-31T04:35:08.761Z,78.75
2018-05-31T04:36:08.764Z,78.75
2018-05-31T04:37:08.830Z,84.38
2018-05-31T04:38:08.770Z,84.38
2018-05-31T04:39:08.777Z,90.00
2018-05-31T04:40:08.778Z,90.00
2018-05-31T04:41:08.779Z,95.63
2018-05-31T04:42:08.785Z,95.63
2018-05-31T04:43:08.789Z,95.63
2018-05-31T04:44:08.790Z,101.25
2018-05-31T04:45:08.797Z,101.25
2018-05-31T04:46:08.795Z,106.88
2018-05-31T04:47:08.802Z,106.88
2018-05-31T04:48:08.805Z,112.50
2018-05-31T04:49:08.806Z,112.50
2018-05-31T04:50:08.808Z,118.13
2018-05-31T04:51:08.811Z,118.13
2018-05-31T04:52:08.815Z,123.75
2018-05-31T04:53:08.822Z,123.75
2018-05-31T04:54:08.820Z,129.38
2018-05-31T04:55:08.856Z,129.38
2018-05-31T04:56:08.828Z,135.00
2018-05-31T04:57:08.835Z,140.63
2018-05-31T04:58:08.835Z,140.63
2018-05-31T04:59:08.838Z,146.25
2018-05-31T05:00:08.850Z,146.25
2018-05-31T05:01:08.847Z,146.25
2018-05-31T05:02:08.850Z,151.88
2018-05-31T05:03:08.854Z,151.88
2018-05-31T05:04:08.856Z,157.50
2018-05-31T05:05:08.862Z,157.50
2018-05-31T05:06:08.863Z,163.13
2018-05-31T05:07:08.867Z,180.00
2018-05-31T05:08:08.873Z,202.50
2018-05-31T05:09:08.876Z,196.88
2018-05-31T05:10:08.881Z,258.75
2018-05-31T05:11:08.883Z,438.75
2018-05-31T05:12:08.886Z,455.63
2018-05-31T05:13:08.890Z,292.50
2018-05-31T05:14:08.894Z,270.00
2018-05-31T05:15:08.898Z,270.00
2018-05-31T05:16:08.941Z,360.00
2018-05-31T05:17:08.915Z,343.13
2018-05-31T05:18:08.915Z,253.13
2018-05-31T05:19:08.920Z,219.38
2018-05-31T05:20:08.924Z,230.63
2018-05-31T05:21:08.925Z,264.38
2018-05-31T05:22:08.929Z,326.25
2018-05-31T05:23:08.934Z,444.38
2018-05-31T05:24:08.940Z,506.25
2018-05-31T05:25:08.945Z,466.88
2018-05-31T05:26:08.950Z,376.88
2018-05-31T05:27:08.958Z,303.75
2018-05-31T05:28:08.960Z,264.38
2018-05-31T05:29:08.966Z,258.75
2018-05-31T05:30:08.968Z,264.38
2018-05-31T05:31:08.977Z,354.38
2018-05-31T05:32:08.981Z,444.38
2018-05-31T05:33:08.989Z,455.63
2018-05-31T05:34:09.000Z,478.13
2018-05-31T05:35:08.999Z,433.13
2018-05-31T05:36:09.006Z,320.63
2018-05-31T05:37:09.013Z,275.63
2018-05-31T05:38:09.014Z,264.38
2018-05-31T05:39:09.021Z,270.00
2018-05-31T05:40:09.026Z,270.00
2018-05-31T05:41:09.036Z,270.00
2018-05-31T05:42:09.038Z,270.00
2018-05-31T05:43:09.042Z,275.63
2018-05-31T05:44:09.049Z,275.63
2018-05-31T05:45:09.056Z,275.63
2018-05-31T05:46:09.064Z,275.63
2018-05-31T05:47:09.088Z,275.63
2018-05-31T05:48:09.071Z,303.75
2018-05-31T05:49:09.573Z,388.13
2018-05-31T05:50:09.127Z,483.75
2018-05-31T05:51:09.096Z,641.25
2018-05-31T05:52:09.106Z,658.13
2018-05-31T05:53:09.099Z,472.50
2018-05-31T05:54:09.105Z,320.63
2018-05-31T05:55:09.111Z,275.63
2018-05-31T05:56:09.118Z,247.50
2018-05-31T05:57:09.127Z,225.00
2018-05-31T05:58:09.597Z,225.00
2018-05-31T05:59:09.144Z,213.75
2018-05-31T06:00:09.142Z,213.75
2018-05-31T06:01:09.148Z,208.13
2018-05-31T06:02:09.159Z,208.13
2018-05-31T06:03:09.158Z,225.00
2018-05-31T06:04:09.169Z,236.25
2018-05-31T06:05:09.170Z,230.63
2018-05-31T06:06:09.182Z,213.75
2018-05-31T06:07:09.183Z,202.50
2018-05-31T06:08:09.189Z,191.25
2018-05-31T06:09:09.226Z,191.25
2018-05-31T06:10:09.257Z,219.38
2018-05-31T06:11:09.215Z,208.13
2018-05-31T06:12:09.212Z,157.50
2018-05-31T06:13:09.221Z,140.63
2018-05-31T06:14:09.225Z,101.25
2018-05-31T06:15:09.229Z,90.00
2018-05-31T06:16:09.235Z,84.38
2018-05-31T06:17:09.241Z,84.38
2018-05-31T06:18:09.247Z,84.38
2018-05-31T06:19:09.331Z,84.38
2018-05-31T06:20:09.257Z,84.38
2018-05-31T06:21:09.352Z,84.38
2018-05-31T06:22:09.269Z,84.38
2018-05-31T06:23:09.275Z,84.38
2018-05-31T06:24:09.280Z,84.38
2018-05-31T06:25:09.287Z,84.38
2018-05-31T06:26:09.334Z,84.38
2018-05-31T06:27:09.295Z,84.38
2018-05-31T06:28:09.301Z,90.00
2018-05-31T06:29:09.326Z,90.00
2018-05-31T06:30:09.312Z,95.63
2018-05-31T06:31:09.320Z,106.88
2018-05-31T06:32:09.380Z,129.38
2018-05-31T06:33:09.327Z,140.63
2018-05-31T06:34:09.334Z,146.25
2018-05-31T06:35:09.341Z,157.50
2018-05-31T06:36:09.345Z,163.13
2018-05-31T06:37:09.518Z,168.75
2018-05-31T06:38:09.360Z,163.13
2018-05-31T06:39:09.357Z,168.75
2018-05-31T06:40:09.634Z,168.75
2018-05-31T06:41:09.367Z,168.75
2018-05-31T06:42:09.373Z,168.75
2018-05-31T06:43:09.380Z,163.13
2018-05-31T06:44:10.149Z,157.50
2018-05-31T06:45:09.392Z,157.50
2018-05-31T06:46:09.393Z,157.50
2018-05-31T06:47:09.399Z,163.13
2018-05-31T06:48:09.406Z,157.50
2018-05-31T06:49:09.412Z,151.88
2018-05-31T06:50:09.415Z,140.63
2018-05-31T06:51:09.435Z,140.63
2018-05-31T06:52:09.433Z,151.88
2018-05-31T06:53:09.431Z,157.50
2018-05-31T06:54:09.436Z,157.50
2018-05-31T06:55:09.440Z,151.88
2018-05-31T06:56:09.447Z,140.63
2018-05-31T06:57:09.452Z,146.25
2018-05-31T06:58:09.458Z,140.63
2018-05-31T06:59:09.636Z,140.63
2018-05-31T07:00:09.468Z,140.63
2018-05-31T07:01:09.555Z,135.00
2018-05-31T07:02:09.484Z,241.88
2018-05-31T07:03:10.019Z,129.38
2018-05-31T07:04:09.698Z,129.38
2018-05-31T07:05:09.633Z,123.75
2018-05-31T07:06:09.501Z,123.75
2018-05-31T07:07:09.525Z,123.75
2018-05-31T07:08:09.704Z,118.13
2018-05-31T07:09:09.661Z,118.13
2018-05-31T07:10:09.594Z,112.50
2018-05-31T07:11:09.527Z,106.88
2018-05-31T07:12:09.533Z,106.88
2018-05-31T07:13:09.539Z,101.25
2018-05-31T07:14:09.542Z,101.25
2018-05-31T07:15:09.550Z,101.25
2018-05-31T07:16:10.245Z,101.25
2018-05-31T07:17:09.559Z,95.63
2018-05-31T07:18:09.567Z,101.25
2018-05-31T07:19:09.573Z,95.63
2018-05-31T07:20:11.153Z,90.00
2018-05-31T07:21:09.582Z,95.63
2018-05-31T07:22:09.624Z,90.00
2018-05-31T07:23:09.680Z,90.00
2018-05-31T07:24:09.604Z,90.00
2018-05-31T07:25:09.605Z,90.00
2018-05-31T07:26:09.608Z,90.00
2018-05-31T07:27:09.625Z,90.00
2018-05-31T07:28:09.731Z,90.00
2018-05-31T07:29:09.626Z,90.00
2018-05-31T07:30:09.629Z,90.00
2018-05-31T07:31:09.635Z,95.63
2018-05-31T07:32:09.651Z,95.63
2018-05-31T07:33:09.767Z,95.63
2018-05-31T07:34:10.171Z,95.63
2018-05-31T07:35:09.663Z,95.63
2018-05-31T07:36:09.667Z,95.63
2018-05-31T07:37:09.667Z,101.25
2018-05-31T07:38:09.674Z,101.25
2018-05-31T07:39:09.682Z,101.25
2018-05-31T07:40:09.681Z,101.25
2018-05-31T07:41:09.686Z,101.25
2018-05-31T07:42:09.701Z,101.25
2018-05-31T07:43:09.710Z,101.25
2018-05-31T07:44:09.703Z,101.25
2018-05-31T07:45:09.739Z,101.25
2018-05-31T07:46:09.713Z,101.25
2018-05-31T07:47:09.721Z,106.88
2018-05-31T07:48:09.725Z,112.50
2018-05-31T07:49:09.731Z,112.50
2018-05-31T07:50:09.733Z,112.50
2018-05-31T07:51:09.741Z,112.50
2018-05-31T07:52:09.754Z,112.50
2018-05-31T07:53:09.915Z,112.50
2018-05-31T07:54:09.774Z,112.50
2018-05-31T07:55:09.761Z,112.50
2018-05-31T07:56:09.776Z,112.50
2018-05-31T07:57:09.776Z,112.50
2018-05-31T07:58:09.827Z,112.50
2018-05-31T07:59:09.784Z,106.88
2018-05-31T08:00:09.788Z,106.88
2018-05-31T08:01:09.798Z,106.88
2018-05-31T08:02:09.798Z,106.88
2018-05-31T08:03:09.809Z,106.88
2018-05-31T08:04:09.828Z,106.88
2018-05-31T08:05:10.701Z,106.88
2018-05-31T08:06:09.821Z,106.88
2018-05-31T08:07:09.826Z,112.50
2018-05-31T08:08:09.835Z,112.50
2018-05-31T08:09:09.838Z,112.50
2018-05-31T08:10:09.845Z,112.50
2018-05-31T08:11:09.859Z,112.50
2018-05-31T08:12:09.855Z,112.50
2018-05-31T08:13:09.865Z,118.13
2018-05-31T08:14:09.883Z,118.13
2018-05-31T08:15:09.872Z,118.13
2018-05-31T08:16:09.884Z,123.75
2018-05-31T08:17:09.891Z,123.75
2018-05-31T08:18:09.904Z,123.75
2018-05-31T08:19:09.902Z,135.00
2018-05-31T08:20:10.028Z,129.38
2018-05-31T08:21:09.926Z,129.38
2018-05-31T08:22:09.913Z,129.38
2018-05-31T08:23:09.918Z,129.38
2018-05-31T08:24:09.949Z,129.38
2018-05-31T08:25:09.930Z,129.38
2018-05-31T08:26:09.939Z,135.00
2018-05-31T08:27:09.945Z,135.00
2018-05-31T08:28:09.953Z,135.00
2018-05-31T08:29:09.952Z,135.00
2018-05-31T08:30:09.976Z,146.25
2018-05-31T08:31:09.992Z,202.50
2018-05-31T08:32:09.969Z,298.13
2018-05-31T08:33:09.975Z,331.88
2018-05-31T08:34:09.983Z,337.50
2018-05-31T08:35:09.986Z,343.13
2018-05-31T08:36:09.993Z,354.38
2018-05-31T08:37:10.005Z,360.00
2018-05-31T08:38:10.066Z,371.25
2018-05-31T08:39:10.020Z,382.50
2018-05-31T08:40:10.022Z,388.13
2018-05-31T08:41:10.027Z,393.75
2018-05-31T08:42:10.037Z,388.13
2018-05-31T08:43:10.040Z,360.00
2018-05-31T08:44:10.162Z,343.13
2018-05-31T08:45:10.058Z,348.75
2018-05-31T08:46:10.069Z,315.00
2018-05-31T08:47:10.073Z,315.00
2018-05-31T08:48:10.081Z,393.75
2018-05-31T08:49:10.095Z,410.63
2018-05-31T08:50:10.127Z,421.88
2018-05-31T08:51:10.294Z,444.38
2018-05-31T08:52:10.116Z,455.63
2018-05-31T08:53:10.136Z,472.50
2018-05-31T08:54:10.133Z,495.00
2018-05-31T08:55:10.156Z,506.25
2018-05-31T08:56:11.704Z,523.13
2018-05-31T08:57:10.162Z,523.13
2018-05-31T08:58:10.172Z,545.63
2018-05-31T08:59:10.178Z,551.25
2018-05-31T09:00:10.455Z,545.63
2018-05-31T09:01:10.259Z,551.25
2018-05-31T09:02:10.543Z,556.88
2018-05-31T09:03:10.222Z,562.50
2018-05-31T09:04:10.227Z,658.13
2018-05-31T09:05:10.240Z,613.13
2018-05-31T09:06:10.252Z,624.38
2018-05-31T09:07:10.274Z,624.38
2018-05-31T09:08:10.314Z,635.63
2018-05-31T09:09:10.295Z,658.13
2018-05-31T09:10:10.293Z,658.13
2018-05-31T09:11:10.300Z,658.13
2018-05-31T09:12:10.312Z,675.00
2018-05-31T09:13:10.323Z,691.88
2018-05-31T09:14:10.333Z,691.88
2018-05-31T09:15:10.387Z,697.50
2018-05-31T09:16:10.362Z,720.00
2018-05-31T09:17:10.387Z,731.25
2018-05-31T09:18:10.384Z,748.13
2018-05-31T09:19:10.391Z,765.00
2018-05-31T09:20:10.407Z,776.25
2018-05-31T09:21:10.415Z,781.88
2018-05-31T09:22:10.524Z,804.38
2018-05-31T09:23:10.464Z,804.38
2018-05-31T09:24:10.454Z,826.88
2018-05-31T09:25:10.465Z,832.50
2018-05-31T09:26:10.476Z,826.88
2018-05-31T09:27:10.489Z,826.88
2018-05-31T09:28:10.499Z,832.50
2018-05-31T09:29:10.514Z,815.63
2018-05-31T09:30:10.662Z,832.50
2018-05-31T09:31:10.589Z,843.75
2018-05-31T09:32:10.555Z,860.63
2018-05-31T09:33:11.107Z,883.13
2018-05-31T09:34:10.579Z,894.38
2018-05-31T09:35:10.771Z,905.63
2018-05-31T09:36:10.605Z,916.88
2018-05-31T09:37:11.007Z,945.00
2018-05-31T09:38:10.630Z,967.50
2018-05-31T09:39:10.643Z,984.38
2018-05-31T09:40:10.663Z,990.00
2018-05-31T09:41:10.717Z,978.75
2018-05-31T09:42:10.687Z,978.75
2018-05-31T09:43:10.702Z,956.25
2018-05-31T09:44:10.717Z,961.88
2018-05-31T09:45:10.728Z,973.13
2018-05-31T09:46:10.740Z,984.38
2018-05-31T09:47:10.755Z,1012.50
2018-05-31T09:48:10.769Z,1018.13
2018-05-31T09:49:10.787Z,1023.75
2018-05-31T09:50:10.796Z,1040.63
2018-05-31T09:51:10.811Z,1057.50
2018-05-31T09:52:11.521Z,1057.50
2018-05-31T09:53:10.846Z,1074.38
2018-05-31T09:54:10.854Z,1080.00
2018-05-31T09:55:10.869Z,1057.50
2018-05-31T09:56:10.883Z,1063.13
2018-05-31T09:57:10.898Z,1057.50
2018-05-31T09:58:10.956Z,1051.88
2018-05-31T09:59:13.733Z,1023.75
2018-05-31T10:00:10.948Z,990.00
2018-05-31T10:01:10.962Z,961.88
2018-05-31T10:02:10.978Z,916.88
2018-05-31T10:03:10.991Z,888.75
2018-05-31T10:04:11.009Z,866.25
2018-05-31T10:05:11.053Z,849.38
2018-05-31T10:06:11.039Z,855.00
2018-05-31T10:07:11.054Z,860.63
2018-05-31T10:08:11.069Z,894.38
2018-05-31T10:09:11.087Z,939.38
2018-05-31T10:10:11.115Z,961.88
2018-05-31T10:11:11.118Z,990.00
2018-05-31T10:12:11.133Z,804.38
2018-05-31T10:13:11.153Z,1023.75
2018-05-31T10:14:11.166Z,1046.25
2018-05-31T10:15:11.182Z,1057.50
2018-05-31T10:16:11.203Z,1046.25
2018-05-31T10:17:11.217Z,1012.50
2018-05-31T10:18:11.230Z,1001.25
2018-05-31T10:19:11.246Z,1012.50
2018-05-31T10:20:11.264Z,1035.00
2018-05-31T10:21:11.279Z,1080.00
2018-05-31T10:22:11.294Z,1130.63
2018-05-31T10:23:11.311Z,1153.13
2018-05-31T10:24:11.347Z,1130.63
2018-05-31T10:25:11.345Z,1153.13
2018-05-31T10:26:11.365Z,1186.88
2018-05-31T10:27:11.380Z,1186.88
2018-05-31T10:28:11.405Z,1209.38
2018-05-31T10:29:11.422Z,1243.13
2018-05-31T10:30:11.467Z,1276.88
2018-05-31T10:31:11.448Z,1316.25
2018-05-31T10:32:11.464Z,1338.75
2018-05-31T10:33:11.494Z,1361.25
2018-05-31T10:34:11.511Z,1411.88
2018-05-31T10:35:11.515Z,1389.38
2018-05-31T10:36:11.534Z,1366.88
2018-05-31T10:37:11.555Z,1344.38
2018-05-31T10:38:11.565Z,1321.88
2018-05-31T10:39:11.584Z,1293.75
2018-05-31T10:40:11.598Z,1276.88
2018-05-31T10:41:11.616Z,1316.25
2018-05-31T10:42:11.633Z,1344.38
2018-05-31T10:43:11.651Z,1344.38
2018-05-31T10:44:11.669Z,1389.38
2018-05-31T10:45:11.688Z,1395.00
2018-05-31T10:46:11.938Z,1378.13
2018-05-31T10:47:11.721Z,1378.13
2018-05-31T10:48:11.741Z,1350.00
2018-05-31T10:49:11.757Z,1389.38
2018-05-31T10:50:11.773Z,1366.88
2018-05-31T10:51:11.790Z,1383.75
2018-05-31T10:52:11.808Z,1366.88
2018-05-31T10:53:11.826Z,1350.00
2018-05-31T10:54:11.855Z,1338.75
2018-05-31T10:55:11.863Z,1310.63
2018-05-31T10:56:11.878Z,1316.25
2018-05-31T10:57:11.901Z,1288.13
2018-05-31T10:58:12.323Z,1282.50
2018-05-31T10:59:11.953Z,1276.88
2018-05-31T11:00:12.773Z,1254.38
2018-05-31T11:01:11.971Z,1293.75
2018-05-31T11:02:12.767Z,1282.50
2018-05-31T11:03:12.005Z,1299.38
2018-05-31T11:04:12.025Z,1333.13
2018-05-31T11:05:12.040Z,1333.13
2018-05-31T11:06:12.055Z,1400.63
2018-05-31T11:07:12.074Z,1383.75
2018-05-31T11:08:12.093Z,1372.50
2018-05-31T11:09:12.108Z,1423.13
2018-05-31T11:10:12.124Z,1428.75
2018-05-31T11:11:12.157Z,1423.13
2018-05-31T11:12:12.159Z,1355.63
2018-05-31T11:13:12.187Z,1344.38
2018-05-31T11:14:12.193Z,1372.50
2018-05-31T11:15:12.212Z,1411.88
2018-05-31T11:16:12.252Z,1434.38
2018-05-31T11:17:12.246Z,1395.00
2018-05-31T11:18:13.191Z,1355.63
2018-05-31T11:19:12.285Z,1366.88
2018-05-31T11:20:12.303Z,1423.13
2018-05-31T11:21:12.319Z,1490.63
2018-05-31T11:22:12.331Z,1490.63
2018-05-31T11:23:12.499Z,1496.25
2018-05-31T11:24:12.370Z,1479.38
2018-05-31T11:25:12.383Z,1456.88
2018-05-31T11:26:12.404Z,1440.00
2018-05-31T11:27:12.419Z,1423.13
2018-05-31T11:28:12.447Z,1451.25
2018-05-31T11:29:12.494Z,1473.75
2018-05-31T11:30:12.467Z,1456.88
2018-05-31T11:31:12.485Z,1501.88
2018-05-31T11:32:12.711Z,1552.50
2018-05-31T11:33:12.521Z,1558.13
2018-05-31T11:34:12.684Z,1518.75
2018-05-31T11:35:12.600Z,1485.00
2018-05-31T11:36:12.568Z,1434.38
2018-05-31T11:37:12.590Z,1428.75
2018-05-31T11:38:12.603Z,1400.63
2018-05-31T11:39:12.889Z,1411.88
2018-05-31T11:40:12.634Z,1378.13
2018-05-31T11:41:12.653Z,1321.88
2018-05-31T11:42:12.666Z,1243.13
2018-05-31T11:43:12.685Z,1051.88
2018-05-31T11:44:12.699Z,1372.50
2018-05-31T11:45:12.718Z,1541.25
2018-05-31T11:46:12.730Z,1546.88
2018-05-31T11:47:12.749Z,1501.88
2018-05-31T11:48:12.763Z,1462.50
2018-05-31T11:49:12.777Z,1479.38
2018-05-31T11:50:12.800Z,1518.75
2018-05-31T11:51:12.828Z,1524.38
2018-05-31T11:52:12.857Z,1563.75
2018-05-31T11:53:12.845Z,1631.25
2018-05-31T11:54:12.856Z,1670.63
2018-05-31T11:55:12.872Z,1715.63
2018-05-31T11:56:12.893Z,1749.38
2018-05-31T11:57:12.907Z,1738.13
2018-05-31T11:58:12.918Z,1743.75
2018-05-31T11:59:12.934Z,1760.63
2018-05-31T12:00:12.950Z,1743.75
2018-05-31T12:01:12.966Z,1721.25
2018-05-31T12:02:12.983Z,1794.38
2018-05-31T12:03:13.000Z,1726.88
2018-05-31T12:04:13.018Z,1687.50
2018-05-31T12:05:13.034Z,843.75
2018-05-31T12:06:13.050Z,1310.63
2018-05-31T12:07:13.067Z,1743.75
2018-05-31T12:08:13.124Z,1749.38
2018-05-31T12:09:13.100Z,1732.50
2018-05-31T12:10:13.114Z,1631.25
2018-05-31T12:11:13.130Z,1715.63
2018-05-31T12:12:13.210Z,1721.25
2018-05-31T12:13:14.184Z,1704.38
2018-05-31T12:14:13.182Z,376.88
2018-05-31T12:15:13.222Z,298.13
2018-05-31T12:16:13.226Z,331.88
2018-05-31T12:17:13.227Z,433.13
2018-05-31T12:18:13.257Z,534.38
2018-05-31T12:19:13.402Z,1057.50
2018-05-31T12:20:13.297Z,1541.25
2018-05-31T12:21:13.321Z,1558.13
2018-05-31T12:22:13.301Z,1237.50
2018-05-31T12:23:13.313Z,1063.13
2018-05-31T12:24:13.331Z,1490.63
2018-05-31T12:25:13.345Z,1130.63
2018-05-31T12:26:13.358Z,1029.38
2018-05-31T12:27:13.368Z,995.63
2018-05-31T12:28:13.386Z,1023.75
2018-05-31T12:29:13.396Z,888.75
2018-05-31T12:30:13.418Z,1006.88
2018-05-31T12:31:13.424Z,871.88
2018-05-31T12:32:13.475Z,478.13
2018-05-31T12:33:13.454Z,461.25
2018-05-31T12:34:13.461Z,641.25
2018-05-31T12:35:13.486Z,821.25
2018-05-31T12:36:13.489Z,714.38
2018-05-31T12:37:13.542Z,568.13
2018-05-31T12:38:13.514Z,427.50
2018-05-31T12:39:13.523Z,365.63
2018-05-31T12:40:13.537Z,371.25